sensor_id;sensor_type;location;lat;lon;timestamp;temperature;humidity
20492;DHT22;10404;51.468;6.762;2023-05-07T00:00:21;19.20;57.60
20492;DHT22;10404;51.468;6.762;2023-05-07T00:02:47;19.20;57.50
20492;DHT22;10404;51.468;6.762;2023-05-07T00:05:13;19.20;57.70
20492;DHT22;10404;51.468;6.762;2023-05-07T00:07:38;19.10;57.90
20492;DHT22;10404;51.468;6.762;2023-05-07T00:10:04;19.10;57.90
20492;DHT22;10404;51.468;6.762;2023-05-07T00:12:32;19.10;58.00
20492;DHT22;10404;51.468;6.762;2023-05-07T00:15:00;19.10;57.80
20492;DHT22;10404;51.468;6.762;2023-05-07T00:17:25;19.00;58.00
20492;DHT22;10404;51.468;6.762;2023-05-07T00:19:51;19.00;57.90
20492;DHT22;10404;51.468;6.762;2023-05-07T00:22:17;19.00;58.00
20492;DHT22;10404;51.468;6.762;2023-05-07T00:24:42;18.90;58.30
20492;DHT22;10404;51.468;6.762;2023-05-07T00:27:08;18.90;58.40
20492;DHT22;10404;51.468;6.762;2023-05-07T00:29:34;18.90;58.30
20492;DHT22;10404;51.468;6.762;2023-05-07T00:31:59;18.90;58.50
20492;DHT22;10404;51.468;6.762;2023-05-07T00:34:25;18.80;58.70
20492;DHT22;10404;51.468;6.762;2023-05-07T00:36:50;18.80;58.60
20492;DHT22;10404;51.468;6.762;2023-05-07T00:39:16;18.80;58.40
20492;DHT22;10404;51.468;6.762;2023-05-07T00:41:42;18.80;58.70
20492;DHT22;10404;51.468;6.762;2023-05-07T00:44:07;18.80;58.70
20492;DHT22;10404;51.468;6.762;2023-05-07T00:46:33;18.70;58.60
20492;DHT22;10404;51.468;6.762;2023-05-07T00:48:59;18.70;58.70
20492;DHT22;10404;51.468;6.762;2023-05-07T00:51:26;18.70;58.90
20492;DHT22;10404;51.468;6.762;2023-05-07T00:53:53;18.60;58.90
20492;DHT22;10404;51.468;6.762;2023-05-07T00:56:20;18.60;58.90
20492;DHT22;10404;51.468;6.762;2023-05-07T00:58:46;18.60;58.90
20492;DHT22;10404;51.468;6.762;2023-05-07T01:01:12;18.60;59.00
20492;DHT22;10404;51.468;6.762;2023-05-07T01:03:38;18.60;59.10
20492;DHT22;10404;51.468;6.762;2023-05-07T01:06:05;18.60;59.20
20492;DHT22;10404;51.468;6.762;2023-05-07T01:08:32;18.50;59.00
20492;DHT22;10404;51.468;6.762;2023-05-07T01:10:58;18.50;59.20
20492;DHT22;10404;51.468;6.762;2023-05-07T01:13:25;18.50;59.20
20492;DHT22;10404;51.468;6.762;2023-05-07T01:15:50;18.50;59.20
20492;DHT22;10404;51.468;6.762;2023-05-07T01:18:16;18.40;59.10
20492;DHT22;10404;51.468;6.762;2023-05-07T01:20:42;18.40;59.30
20492;DHT22;10404;51.468;6.762;2023-05-07T01:23:08;18.40;59.20
20492;DHT22;10404;51.468;6.762;2023-05-07T01:25:36;18.40;59.50
20492;DHT22;10404;51.468;6.762;2023-05-07T01:28:01;18.40;59.40
20492;DHT22;10404;51.468;6.762;2023-05-07T01:30:28;18.40;59.40
20492;DHT22;10404;51.468;6.762;2023-05-07T01:33:02;18.30;59.40
20492;DHT22;10404;51.468;6.762;2023-05-07T01:35:33;18.30;59.50
20492;DHT22;10404;51.468;6.762;2023-05-07T01:38:00;18.30;59.60
20492;DHT22;10404;51.468;6.762;2023-05-07T01:40:27;18.30;59.60
20492;DHT22;10404;51.468;6.762;2023-05-07T01:42:53;18.30;59.60
20492;DHT22;10404;51.468;6.762;2023-05-07T01:45:19;18.20;59.60
20492;DHT22;10404;51.468;6.762;2023-05-07T01:47:45;18.20;59.70
20492;DHT22;10404;51.468;6.762;2023-05-07T01:50:11;18.20;59.80
20492;DHT22;10404;51.468;6.762;2023-05-07T01:52:38;18.20;59.80
20492;DHT22;10404;51.468;6.762;2023-05-07T01:55:04;18.10;59.70
20492;DHT22;10404;51.468;6.762;2023-05-07T01:57:30;18.10;59.90
20492;DHT22;10404;51.468;6.762;2023-05-07T01:59:55;18.10;59.90
20492;DHT22;10404;51.468;6.762;2023-05-07T02:02:21;18.10;59.90
20492;DHT22;10404;51.468;6.762;2023-05-07T02:04:47;18.10;59.90
20492;DHT22;10404;51.468;6.762;2023-05-07T02:07:12;18.00;60.00
20492;DHT22;10404;51.468;6.762;2023-05-07T02:09:38;18.00;60.00
20492;DHT22;10404;51.468;6.762;2023-05-07T02:12:03;18.00;60.00
20492;DHT22;10404;51.468;6.762;2023-05-07T02:14:29;18.00;60.10
20492;DHT22;10404;51.468;6.762;2023-05-07T02:16:55;18.00;60.30
20492;DHT22;10404;51.468;6.762;2023-05-07T02:19:20;18.00;60.20
20492;DHT22;10404;51.468;6.762;2023-05-07T02:21:46;17.90;60.30
20492;DHT22;10404;51.468;6.762;2023-05-07T02:24:12;17.90;60.40
20492;DHT22;10404;51.468;6.762;2023-05-07T02:26:39;17.90;60.40
20492;DHT22;10404;51.468;6.762;2023-05-07T02:29:05;17.80;60.50
20492;DHT22;10404;51.468;6.762;2023-05-07T02:31:30;17.80;60.60
20492;DHT22;10404;51.468;6.762;2023-05-07T02:33:56;17.80;60.70
20492;DHT22;10404;51.468;6.762;2023-05-07T02:36:21;17.80;60.70
20492;DHT22;10404;51.468;6.762;2023-05-07T02:38:47;17.80;60.70
20492;DHT22;10404;51.468;6.762;2023-05-07T02:41:12;17.70;60.80
20492;DHT22;10404;51.468;6.762;2023-05-07T02:43:38;17.70;61.00
20492;DHT22;10404;51.468;6.762;2023-05-07T02:46:05;17.70;60.90
20492;DHT22;10404;51.468;6.762;2023-05-07T02:48:31;17.60;61.00
20492;DHT22;10404;51.468;6.762;2023-05-07T02:50:58;17.60;61.00
20492;DHT22;10404;51.468;6.762;2023-05-07T02:53:24;17.60;61.10
20492;DHT22;10404;51.468;6.762;2023-05-07T02:55:56;17.60;61.20
20492;DHT22;10404;51.468;6.762;2023-05-07T02:58:22;17.50;61.20
20492;DHT22;10404;51.468;6.762;2023-05-07T03:00:47;17.50;61.30
20492;DHT22;10404;51.468;6.762;2023-05-07T03:03:13;17.50;61.40
20492;DHT22;10404;51.468;6.762;2023-05-07T03:05:39;17.50;61.50
20492;DHT22;10404;51.468;6.762;2023-05-07T03:08:05;17.50;61.60
20492;DHT22;10404;51.468;6.762;2023-05-07T03:10:31;17.50;61.60
20492;DHT22;10404;51.468;6.762;2023-05-07T03:12:56;17.40;61.80
20492;DHT22;10404;51.468;6.762;2023-05-07T03:15:22;17.40;61.80
20492;DHT22;10404;51.468;6.762;2023-05-07T03:17:48;17.40;61.80
20492;DHT22;10404;51.468;6.762;2023-05-07T03:20:14;17.40;61.80
20492;DHT22;10404;51.468;6.762;2023-05-07T03:22:39;17.40;61.90
20492;DHT22;10404;51.468;6.762;2023-05-07T03:25:07;17.40;62.10
20492;DHT22;10404;51.468;6.762;2023-05-07T03:27:33;17.30;62.20
20492;DHT22;10404;51.468;6.762;2023-05-07T03:29:59;17.20;62.20
20492;DHT22;10404;51.468;6.762;2023-05-07T03:32:24;17.20;62.20
20492;DHT22;10404;51.468;6.762;2023-05-07T03:34:50;17.20;62.30
20492;DHT22;10404;51.468;6.762;2023-05-07T03:37:16;17.20;62.40
20492;DHT22;10404;51.468;6.762;2023-05-07T03:39:41;17.20;62.40
20492;DHT22;10404;51.468;6.762;2023-05-07T03:42:07;17.20;62.50
20492;DHT22;10404;51.468;6.762;2023-05-07T03:44:32;17.10;62.50
20492;DHT22;10404;51.468;6.762;2023-05-07T03:46:58;17.10;62.50
20492;DHT22;10404;51.468;6.762;2023-05-07T03:49:23;17.00;62.70
20492;DHT22;10404;51.468;6.762;2023-05-07T03:51:49;17.00;62.70
20492;DHT22;10404;51.468;6.762;2023-05-07T03:54:15;17.00;62.90
20492;DHT22;10404;51.468;6.762;2023-05-07T03:56:40;17.00;62.90
20492;DHT22;10404;51.468;6.762;2023-05-07T03:59:06;17.00;62.90
20492;DHT22;10404;51.468;6.762;2023-05-07T04:01:31;17.00;63.00
20492;DHT22;10404;51.468;6.762;2023-05-07T04:03:57;17.00;62.90
20492;DHT22;10404;51.468;6.762;2023-05-07T04:06:23;16.90;62.90
20492;DHT22;10404;51.468;6.762;2023-05-07T04:08:48;16.90;63.00
20492;DHT22;10404;51.468;6.762;2023-05-07T04:11:14;16.90;63.20
20492;DHT22;10404;51.468;6.762;2023-05-07T04:13:39;16.90;63.20
20492;DHT22;10404;51.468;6.762;2023-05-07T04:16:05;16.90;63.20
20492;DHT22;10404;51.468;6.762;2023-05-07T04:18:31;16.90;63.30
20492;DHT22;10404;51.468;6.762;2023-05-07T04:20:56;16.80;63.50
20492;DHT22;10404;51.468;6.762;2023-05-07T04:23:22;16.80;63.70
20492;DHT22;10404;51.468;6.762;2023-05-07T04:25:47;16.80;63.80
20492;DHT22;10404;51.468;6.762;2023-05-07T04:28:13;16.80;63.90
20492;DHT22;10404;51.468;6.762;2023-05-07T04:30:39;16.80;63.90
20492;DHT22;10404;51.468;6.762;2023-05-07T04:33:06;16.70;64.00
20492;DHT22;10404;51.468;6.762;2023-05-07T04:35:32;16.70;64.10
20492;DHT22;10404;51.468;6.762;2023-05-07T04:37:58;16.70;64.20
20492;DHT22;10404;51.468;6.762;2023-05-07T04:40:23;16.60;64.10
20492;DHT22;10404;51.468;6.762;2023-05-07T04:42:49;16.60;64.20
20492;DHT22;10404;51.468;6.762;2023-05-07T04:45:15;16.60;64.40
20492;DHT22;10404;51.468;6.762;2023-05-07T04:47:40;16.60;64.40
20492;DHT22;10404;51.468;6.762;2023-05-07T04:50:06;16.50;64.50
20492;DHT22;10404;51.468;6.762;2023-05-07T04:52:33;16.50;64.50
20492;DHT22;10404;51.468;6.762;2023-05-07T04:54:59;16.50;64.50
20492;DHT22;10404;51.468;6.762;2023-05-07T04:57:25;16.50;64.60
20492;DHT22;10404;51.468;6.762;2023-05-07T04:59:51;16.50;64.70
20492;DHT22;10404;51.468;6.762;2023-05-07T05:02:17;16.40;64.80
20492;DHT22;10404;51.468;6.762;2023-05-07T05:04:43;16.40;64.80
20492;DHT22;10404;51.468;6.762;2023-05-07T05:07:08;16.40;64.90
20492;DHT22;10404;51.468;6.762;2023-05-07T05:09:34;16.40;65.10
20492;DHT22;10404;51.468;6.762;2023-05-07T05:11:59;16.40;65.20
20492;DHT22;10404;51.468;6.762;2023-05-07T05:14:25;16.40;65.30
20492;DHT22;10404;51.468;6.762;2023-05-07T05:16:50;16.40;65.30
20492;DHT22;10404;51.468;6.762;2023-05-07T05:19:16;16.40;65.20
20492;DHT22;10404;51.468;6.762;2023-05-07T05:21:42;16.40;65.30
20492;DHT22;10404;51.468;6.762;2023-05-07T05:24:07;16.40;65.30
20492;DHT22;10404;51.468;6.762;2023-05-07T05:26:33;16.40;65.20
20492;DHT22;10404;51.468;6.762;2023-05-07T05:28:59;16.40;65.10
20492;DHT22;10404;51.468;6.762;2023-05-07T05:31:24;16.40;65.20
20492;DHT22;10404;51.468;6.762;2023-05-07T05:33:50;16.40;65.50
20492;DHT22;10404;51.468;6.762;2023-05-07T05:36:16;16.40;65.50
20492;DHT22;10404;51.468;6.762;2023-05-07T05:38:42;16.40;66.00
20492;DHT22;10404;51.468;6.762;2023-05-07T05:41:07;16.40;65.70
20492;DHT22;10404;51.468;6.762;2023-05-07T05:43:33;16.40;65.70
20492;DHT22;10404;51.468;6.762;2023-05-07T05:45:58;16.50;65.80
20492;DHT22;10404;51.468;6.762;2023-05-07T05:48:24;16.50;65.80
20492;DHT22;10404;51.468;6.762;2023-05-07T05:50:49;16.50;65.90
20492;DHT22;10404;51.468;6.762;2023-05-07T05:53:15;16.50;65.90
20492;DHT22;10404;51.468;6.762;2023-05-07T05:55:41;16.50;65.80
20492;DHT22;10404;51.468;6.762;2023-05-07T05:58:08;16.50;66.10
20492;DHT22;10404;51.468;6.762;2023-05-07T06:00:34;16.50;66.10
20492;DHT22;10404;51.468;6.762;2023-05-07T06:02:59;16.50;66.10
20492;DHT22;10404;51.468;6.762;2023-05-07T06:05:25;16.50;66.20
20492;DHT22;10404;51.468;6.762;2023-05-07T06:07:50;16.50;66.30
20492;DHT22;10404;51.468;6.762;2023-05-07T06:10:16;16.60;66.30
20492;DHT22;10404;51.468;6.762;2023-05-07T06:12:42;16.70;66.30
20492;DHT22;10404;51.468;6.762;2023-05-07T06:15:08;16.80;66.10
20492;DHT22;10404;51.468;6.762;2023-05-07T06:17:34;16.80;65.90
20492;DHT22;10404;51.468;6.762;2023-05-07T06:19:59;16.90;65.80
20492;DHT22;10404;51.468;6.762;2023-05-07T06:22:25;16.90;65.70
20492;DHT22;10404;51.468;6.762;2023-05-07T06:24:50;16.90;65.70
20492;DHT22;10404;51.468;6.762;2023-05-07T06:27:16;17.00;65.70
20492;DHT22;10404;51.468;6.762;2023-05-07T06:29:44;16.90;65.70
20492;DHT22;10404;51.468;6.762;2023-05-07T06:32:11;16.90;65.80
20492;DHT22;10404;51.468;6.762;2023-05-07T06:34:37;16.90;65.80
20492;DHT22;10404;51.468;6.762;2023-05-07T06:37:03;16.90;65.80
20492;DHT22;10404;51.468;6.762;2023-05-07T06:39:29;16.90;65.80
20492;DHT22;10404;51.468;6.762;2023-05-07T06:41:54;16.90;65.80
20492;DHT22;10404;51.468;6.762;2023-05-07T06:44:20;16.90;65.80
20492;DHT22;10404;51.468;6.762;2023-05-07T06:46:46;16.90;66.00
20492;DHT22;10404;51.468;6.762;2023-05-07T06:49:15;16.90;66.00
20492;DHT22;10404;51.468;6.762;2023-05-07T06:51:40;16.90;66.20
20492;DHT22;10404;51.468;6.762;2023-05-07T06:54:06;16.90;66.20
20492;DHT22;10404;51.468;6.762;2023-05-07T06:56:32;16.90;66.20
20492;DHT22;10404;51.468;6.762;2023-05-07T06:59:00;16.90;66.20
20492;DHT22;10404;51.468;6.762;2023-05-07T07:01:26;16.90;66.20
20492;DHT22;10404;51.468;6.762;2023-05-07T07:03:51;16.90;66.30
20492;DHT22;10404;51.468;6.762;2023-05-07T07:06:17;16.90;66.20
20492;DHT22;10404;51.468;6.762;2023-05-07T07:08:43;16.90;66.50
20492;DHT22;10404;51.468;6.762;2023-05-07T07:11:09;16.90;66.50
20492;DHT22;10404;51.468;6.762;2023-05-07T07:13:35;17.00;66.50
20492;DHT22;10404;51.468;6.762;2023-05-07T07:16:00;17.00;66.50
20492;DHT22;10404;51.468;6.762;2023-05-07T07:18:26;17.00;66.60
20492;DHT22;10404;51.468;6.762;2023-05-07T07:20:52;17.00;66.50
20492;DHT22;10404;51.468;6.762;2023-05-07T07:23:17;17.00;66.50
20492;DHT22;10404;51.468;6.762;2023-05-07T07:25:43;17.00;66.40
20492;DHT22;10404;51.468;6.762;2023-05-07T07:28:08;17.10;66.50
20492;DHT22;10404;51.468;6.762;2023-05-07T07:30:34;17.10;66.50
20492;DHT22;10404;51.468;6.762;2023-05-07T07:32:59;17.20;66.50
20492;DHT22;10404;51.468;6.762;2023-05-07T07:35:33;17.20;66.40
20492;DHT22;10404;51.468;6.762;2023-05-07T07:37:59;17.30;66.30
20492;DHT22;10404;51.468;6.762;2023-05-07T07:40:25;17.40;66.20
20492;DHT22;10404;51.468;6.762;2023-05-07T07:42:51;17.50;65.90
20492;DHT22;10404;51.468;6.762;2023-05-07T07:45:17;17.70;65.50
20492;DHT22;10404;51.468;6.762;2023-05-07T07:47:42;17.80;65.00
20492;DHT22;10404;51.468;6.762;2023-05-07T07:50:08;18.00;64.70
20492;DHT22;10404;51.468;6.762;2023-05-07T07:52:34;18.00;64.50
20492;DHT22;10404;51.468;6.762;2023-05-07T07:55:00;18.10;64.40
20492;DHT22;10404;51.468;6.762;2023-05-07T07:57:25;18.10;64.30
20492;DHT22;10404;51.468;6.762;2023-05-07T07:59:51;18.20;64.40
20492;DHT22;10404;51.468;6.762;2023-05-07T08:02:17;18.20;64.20
20492;DHT22;10404;51.468;6.762;2023-05-07T08:04:43;18.30;64.10
20492;DHT22;10404;51.468;6.762;2023-05-07T08:07:09;18.40;64.00
20492;DHT22;10404;51.468;6.762;2023-05-07T08:09:36;18.50;63.80
20492;DHT22;10404;51.468;6.762;2023-05-07T08:12:02;18.70;63.60
20492;DHT22;10404;51.468;6.762;2023-05-07T08:14:28;18.80;63.10
20492;DHT22;10404;51.468;6.762;2023-05-07T08:16:54;19.00;62.90
20492;DHT22;10404;51.468;6.762;2023-05-07T08:19:20;19.00;62.70
20492;DHT22;10404;51.468;6.762;2023-05-07T08:21:46;19.00;62.70
20492;DHT22;10404;51.468;6.762;2023-05-07T08:24:13;19.10;62.60
20492;DHT22;10404;51.468;6.762;2023-05-07T08:26:39;19.10;62.60
20492;DHT22;10404;51.468;6.762;2023-05-07T08:29:05;19.10;62.50
20492;DHT22;10404;51.468;6.762;2023-05-07T08:31:31;19.10;62.60
20492;DHT22;10404;51.468;6.762;2023-05-07T08:33:57;19.00;62.60
20492;DHT22;10404;51.468;6.762;2023-05-07T08:36:23;19.00;62.50
20492;DHT22;10404;51.468;6.762;2023-05-07T08:38:48;19.00;62.40
20492;DHT22;10404;51.468;6.762;2023-05-07T08:41:15;19.00;62.50
20492;DHT22;10404;51.468;6.762;2023-05-07T08:43:41;19.00;62.40
20492;DHT22;10404;51.468;6.762;2023-05-07T08:46:09;19.00;62.50
20492;DHT22;10404;51.468;6.762;2023-05-07T08:48:35;19.00;62.50
20492;DHT22;10404;51.468;6.762;2023-05-07T08:51:01;19.10;62.60
20492;DHT22;10404;51.468;6.762;2023-05-07T08:53:27;19.20;62.60
20492;DHT22;10404;51.468;6.762;2023-05-07T08:55:53;19.40;62.30
20492;DHT22;10404;51.468;6.762;2023-05-07T08:58:18;19.50;62.00
20492;DHT22;10404;51.468;6.762;2023-05-07T09:00:44;19.80;61.40
20492;DHT22;10404;51.468;6.762;2023-05-07T09:03:10;20.00;60.80
20492;DHT22;10404;51.468;6.762;2023-05-07T09:05:39;20.30;60.10
20492;DHT22;10404;51.468;6.762;2023-05-07T09:08:06;20.60;59.40
20492;DHT22;10404;51.468;6.762;2023-05-07T09:10:35;20.80;58.90
20492;DHT22;10404;51.468;6.762;2023-05-07T09:13:01;21.00;58.70
20492;DHT22;10404;51.468;6.762;2023-05-07T09:15:28;21.10;58.20
20492;DHT22;10404;51.468;6.762;2023-05-07T09:17:54;21.10;58.00
20492;DHT22;10404;51.468;6.762;2023-05-07T09:20:19;21.10;57.80
20492;DHT22;10404;51.468;6.762;2023-05-07T09:22:45;21.30;57.90
20492;DHT22;10404;51.468;6.762;2023-05-07T09:25:11;21.50;57.80
20492;DHT22;10404;51.468;6.762;2023-05-07T09:27:37;21.70;57.10
20492;DHT22;10404;51.468;6.762;2023-05-07T09:30:09;21.90;56.50
20492;DHT22;10404;51.468;6.762;2023-05-07T09:32:36;22.00;56.10
20492;DHT22;10404;51.468;6.762;2023-05-07T09:35:03;22.20;55.80
20492;DHT22;10404;51.468;6.762;2023-05-07T09:37:31;22.30;55.60
20492;DHT22;10404;51.468;6.762;2023-05-07T09:39:58;22.50;55.50
20492;DHT22;10404;51.468;6.762;2023-05-07T09:42:24;22.50;55.20
20492;DHT22;10404;51.468;6.762;2023-05-07T09:44:51;22.60;55.00
20492;DHT22;10404;51.468;6.762;2023-05-07T09:47:20;22.70;54.80
20492;DHT22;10404;51.468;6.762;2023-05-07T09:49:48;22.80;54.70
20492;DHT22;10404;51.468;6.762;2023-05-07T09:52:16;22.90;54.30
20492;DHT22;10404;51.468;6.762;2023-05-07T09:54:41;22.90;54.50
20492;DHT22;10404;51.468;6.762;2023-05-07T09:57:10;23.00;54.40
20492;DHT22;10404;51.468;6.762;2023-05-07T09:59:37;23.10;54.30
20492;DHT22;10404;51.468;6.762;2023-05-07T10:02:04;23.10;53.80
20492;DHT22;10404;51.468;6.762;2023-05-07T10:04:34;23.20;53.70
20492;DHT22;10404;51.468;6.762;2023-05-07T10:07:00;23.20;53.60
20492;DHT22;10404;51.468;6.762;2023-05-07T10:09:26;23.30;53.60
20492;DHT22;10404;51.468;6.762;2023-05-07T10:11:52;23.40;53.50
20492;DHT22;10404;51.468;6.762;2023-05-07T10:14:21;23.50;53.10
20492;DHT22;10404;51.468;6.762;2023-05-07T10:16:47;23.60;53.00
20492;DHT22;10404;51.468;6.762;2023-05-07T10:19:14;23.80;52.50
20492;DHT22;10404;51.468;6.762;2023-05-07T10:21:48;23.90;52.10
20492;DHT22;10404;51.468;6.762;2023-05-07T10:24:22;24.00;52.00
20492;DHT22;10404;51.468;6.762;2023-05-07T10:26:52;24.00;52.20
20492;DHT22;10404;51.468;6.762;2023-05-07T10:34:23;24.00;51.90
20492;DHT22;10404;51.468;6.762;2023-05-07T10:36:49;24.10;51.80
20492;DHT22;10404;51.468;6.762;2023-05-07T10:39:15;24.10;51.80
20492;DHT22;10404;51.468;6.762;2023-05-07T10:41:41;24.20;51.70
20492;DHT22;10404;51.468;6.762;2023-05-07T10:44:07;24.20;51.60
20492;DHT22;10404;51.468;6.762;2023-05-07T10:46:32;24.20;51.80
20492;DHT22;10404;51.468;6.762;2023-05-07T10:51:27;24.20;51.70
20492;DHT22;10404;51.468;6.762;2023-05-07T10:54:18;24.20;51.70
20492;DHT22;10404;51.468;6.762;2023-05-07T10:56:44;24.30;51.50
20492;DHT22;10404;51.468;6.762;2023-05-07T11:01:57;24.40;51.40
20492;DHT22;10404;51.468;6.762;2023-05-07T11:04:28;24.40;51.00
20492;DHT22;10404;51.468;6.762;2023-05-07T11:15:05;24.70;50.80
20492;DHT22;10404;51.468;6.762;2023-05-07T11:17:32;24.80;50.60
20492;DHT22;10404;51.468;6.762;2023-05-07T11:20:00;24.80;50.40
20492;DHT22;10404;51.468;6.762;2023-05-07T11:25:06;25.00;50.40
20492;DHT22;10404;51.468;6.762;2023-05-07T11:27:32;25.00;50.50
20492;DHT22;10404;51.468;6.762;2023-05-07T11:29:59;25.00;50.20
20492;DHT22;10404;51.468;6.762;2023-05-07T11:32:28;25.00;50.30
20492;DHT22;10404;51.468;6.762;2023-05-07T11:34:55;25.10;50.50
20492;DHT22;10404;51.468;6.762;2023-05-07T11:37:21;25.10;50.60
20492;DHT22;10404;51.468;6.762;2023-05-07T11:39:47;25.10;50.30
20492;DHT22;10404;51.468;6.762;2023-05-07T11:42:30;25.10;50.00
20492;DHT22;10404;51.468;6.762;2023-05-07T11:44:56;25.20;50.00
20492;DHT22;10404;51.468;6.762;2023-05-07T11:47:22;25.20;49.60
20492;DHT22;10404;51.468;6.762;2023-05-07T11:49:48;25.20;49.30
20492;DHT22;10404;51.468;6.762;2023-05-07T11:52:15;25.30;49.30
20492;DHT22;10404;51.468;6.762;2023-05-07T11:54:41;25.30;49.90
20492;DHT22;10404;51.468;6.762;2023-05-07T11:57:06;25.40;49.80
20492;DHT22;10404;51.468;6.762;2023-05-07T11:59:42;25.40;48.90
20492;DHT22;10404;51.468;6.762;2023-05-07T12:02:10;25.50;48.90
20492;DHT22;10404;51.468;6.762;2023-05-07T12:04:35;25.50;48.60
20492;DHT22;10404;51.468;6.762;2023-05-07T12:07:03;25.60;48.60
20492;DHT22;10404;51.468;6.762;2023-05-07T12:09:28;25.60;48.60
20492;DHT22;10404;51.468;6.762;2023-05-07T12:11:55;25.60;48.10
20492;DHT22;10404;51.468;6.762;2023-05-07T12:14:21;25.60;48.50
20492;DHT22;10404;51.468;6.762;2023-05-07T12:16:47;25.60;48.40
20492;DHT22;10404;51.468;6.762;2023-05-07T12:19:13;25.70;48.30
20492;DHT22;10404;51.468;6.762;2023-05-07T12:21:39;25.70;47.90
20492;DHT22;10404;51.468;6.762;2023-05-07T12:24:05;25.80;48.30
20492;DHT22;10404;51.468;6.762;2023-05-07T12:26:31;25.80;48.40
20492;DHT22;10404;51.468;6.762;2023-05-07T12:28:59;25.80;48.30
20492;DHT22;10404;51.468;6.762;2023-05-07T12:31:28;25.80;48.30
20492;DHT22;10404;51.468;6.762;2023-05-07T12:33:54;25.80;48.20
20492;DHT22;10404;51.468;6.762;2023-05-07T12:36:19;25.80;48.30
20492;DHT22;10404;51.468;6.762;2023-05-07T12:38:49;25.80;48.30
20492;DHT22;10404;51.468;6.762;2023-05-07T12:41:15;25.80;48.20
20492;DHT22;10404;51.468;6.762;2023-05-07T12:43:44;25.80;47.90
20492;DHT22;10404;51.468;6.762;2023-05-07T12:46:11;25.80;47.80
20492;DHT22;10404;51.468;6.762;2023-05-07T12:48:43;25.80;48.00
20492;DHT22;10404;51.468;6.762;2023-05-07T12:51:09;25.80;47.90
20492;DHT22;10404;51.468;6.762;2023-05-07T12:53:42;25.80;47.80
20492;DHT22;10404;51.468;6.762;2023-05-07T12:56:08;25.80;47.60
20492;DHT22;10404;51.468;6.762;2023-05-07T12:58:35;25.80;47.70
20492;DHT22;10404;51.468;6.762;2023-05-07T13:01:04;25.80;47.50
20492;DHT22;10404;51.468;6.762;2023-05-07T13:03:33;25.80;47.50
20492;DHT22;10404;51.468;6.762;2023-05-07T13:06:09;25.80;46.20
20492;DHT22;10404;51.468;6.762;2023-05-07T13:08:41;25.60;44.10
20492;DHT22;10404;51.468;6.762;2023-05-07T13:11:12;25.50;43.50
20492;DHT22;10404;51.468;6.762;2023-05-07T13:13:39;25.30;43.40
20492;DHT22;10404;51.468;6.762;2023-05-07T13:16:06;25.10;43.50
20492;DHT22;10404;51.468;6.762;2023-05-07T13:18:33;25.00;43.40
20492;DHT22;10404;51.468;6.762;2023-05-07T13:20:59;24.80;43.50
20492;DHT22;10404;51.468;6.762;2023-05-07T13:23:26;24.80;44.40
20492;DHT22;10404;51.468;6.762;2023-05-07T13:25:52;24.70;44.80
20492;DHT22;10404;51.468;6.762;2023-05-07T13:28:21;24.60;45.40
20492;DHT22;10404;51.468;6.762;2023-05-07T13:30:50;24.50;45.40
20492;DHT22;10404;51.468;6.762;2023-05-07T13:33:17;24.40;45.50
20492;DHT22;10404;51.468;6.762;2023-05-07T13:35:43;24.30;45.80
20492;DHT22;10404;51.468;6.762;2023-05-07T13:38:09;24.20;45.90
20492;DHT22;10404;51.468;6.762;2023-05-07T13:40:35;24.10;48.00
20492;DHT22;10404;51.468;6.762;2023-05-07T13:43:00;24.00;49.40
20492;DHT22;10404;51.468;6.762;2023-05-07T13:45:29;23.90;50.20
20492;DHT22;10404;51.468;6.762;2023-05-07T13:47:56;23.60;50.80
20492;DHT22;10404;51.468;6.762;2023-05-07T13:50:22;23.50;51.60
20492;DHT22;10404;51.468;6.762;2023-05-07T13:52:49;23.40;52.10
20492;DHT22;10404;51.468;6.762;2023-05-07T13:55:21;23.20;52.20
20492;DHT22;10404;51.468;6.762;2023-05-07T13:58:01;23.10;52.60
20492;DHT22;10404;51.468;6.762;2023-05-07T14:00:28;23.10;53.00
20492;DHT22;10404;51.468;6.762;2023-05-07T14:02:54;23.00;53.80
20492;DHT22;10404;51.468;6.762;2023-05-07T14:05:20;22.90;54.20
20492;DHT22;10404;51.468;6.762;2023-05-07T14:07:49;22.80;54.50
20492;DHT22;10404;51.468;6.762;2023-05-07T14:10:17;22.70;55.00
20492;DHT22;10404;51.468;6.762;2023-05-07T14:12:44;22.60;55.30
20492;DHT22;10404;51.468;6.762;2023-05-07T14:15:10;22.60;55.20
20492;DHT22;10404;51.468;6.762;2023-05-07T14:17:35;22.60;54.70
20492;DHT22;10404;51.468;6.762;2023-05-07T14:20:01;22.50;54.30
20492;DHT22;10404;51.468;6.762;2023-05-07T14:22:27;22.50;54.20
20492;DHT22;10404;51.468;6.762;2023-05-07T14:24:55;22.50;54.20
20492;DHT22;10404;51.468;6.762;2023-05-07T14:27:21;22.50;54.30
20492;DHT22;10404;51.468;6.762;2023-05-07T14:29:46;22.40;54.10
20492;DHT22;10404;51.468;6.762;2023-05-07T14:32:18;22.40;54.40
20492;DHT22;10404;51.468;6.762;2023-05-07T14:34:44;22.50;54.50
20492;DHT22;10404;51.468;6.762;2023-05-07T14:37:10;22.30;54.80
20492;DHT22;10404;51.468;6.762;2023-05-07T14:39:36;22.30;54.80
20492;DHT22;10404;51.468;6.762;2023-05-07T14:42:01;22.30;55.00
20492;DHT22;10404;51.468;6.762;2023-05-07T14:44:27;22.30;54.80
20492;DHT22;10404;51.468;6.762;2023-05-07T14:46:53;22.30;54.70
20492;DHT22;10404;51.468;6.762;2023-05-07T14:49:18;22.30;54.70
20492;DHT22;10404;51.468;6.762;2023-05-07T14:51:45;22.50;54.60
20492;DHT22;10404;51.468;6.762;2023-05-07T14:54:11;22.50;54.40
20492;DHT22;10404;51.468;6.762;2023-05-07T14:56:37;22.70;54.20
20492;DHT22;10404;51.468;6.762;2023-05-07T14:59:03;22.80;54.10
20492;DHT22;10404;51.468;6.762;2023-05-07T15:01:28;22.90;54.10
20492;DHT22;10404;51.468;6.762;2023-05-07T15:03:54;23.00;54.40
20492;DHT22;10404;51.468;6.762;2023-05-07T15:06:21;23.00;54.70
20492;DHT22;10404;51.468;6.762;2023-05-07T15:08:47;23.10;54.80
20492;DHT22;10404;51.468;6.762;2023-05-07T15:11:14;23.20;54.90
20492;DHT22;10404;51.468;6.762;2023-05-07T15:13:39;23.20;55.10
20492;DHT22;10404;51.468;6.762;2023-05-07T15:16:05;23.20;55.10
20492;DHT22;10404;51.468;6.762;2023-05-07T15:18:31;23.30;55.10
20492;DHT22;10404;51.468;6.762;2023-05-07T15:20:57;23.30;55.00
20492;DHT22;10404;51.468;6.762;2023-05-07T15:23:23;23.30;55.20
20492;DHT22;10404;51.468;6.762;2023-05-07T15:25:48;23.30;55.40
20492;DHT22;10404;51.468;6.762;2023-05-07T15:28:14;23.30;55.70
20492;DHT22;10404;51.468;6.762;2023-05-07T15:30:39;23.30;55.80
20492;DHT22;10404;51.468;6.762;2023-05-07T15:33:05;23.20;55.80
20492;DHT22;10404;51.468;6.762;2023-05-07T15:35:31;23.20;56.00
20492;DHT22;10404;51.468;6.762;2023-05-07T15:37:56;23.20;56.20
20492;DHT22;10404;51.468;6.762;2023-05-07T15:40:22;23.20;56.40
20492;DHT22;10404;51.468;6.762;2023-05-07T15:42:48;23.20;56.60
20492;DHT22;10404;51.468;6.762;2023-05-07T15:45:14;23.20;56.90